createdAt,value
2023-05-19T00:00:05.555Z,0.68
2023-05-19T00:02:58.320Z,0.70
2023-05-19T00:05:31.420Z,0.50
2023-05-19T00:08:04.963Z,0.80
2023-05-19T00:10:38.629Z,0.75
2023-05-19T00:13:11.339Z,0.88
2023-05-19T00:15:44.554Z,0.70
2023-05-19T00:18:17.575Z,0.98
2023-05-19T00:20:52.419Z,0.82
2023-05-19T00:23:24.993Z,0.70
2023-05-19T00:25:57.807Z,0.40
2023-05-19T00:28:30.383Z,0.90
2023-05-19T00:31:05.307Z,0.88
2023-05-19T00:33:37.796Z,0.60
2023-05-19T00:36:10.610Z,0.98
2023-05-19T00:38:43.279Z,0.80
2023-05-19T00:41:16.325Z,1.13
2023-05-19T00:43:49.326Z,0.90
2023-05-19T00:46:23.155Z,0.70
2023-05-19T00:48:55.718Z,0.70
2023-05-19T00:51:29.772Z,0.77
2023-05-19T00:54:02.324Z,0.70
2023-05-19T00:56:35.561Z,0.80
2023-05-19T00:59:08.536Z,1.10
2023-05-19T01:01:41.449Z,0.98
2023-05-19T01:04:17.067Z,0.90
2023-05-19T01:06:54.898Z,0.57
2023-05-19T01:09:27.480Z,0.70
2023-05-19T01:12:01.535Z,1.02
2023-05-19T01:14:34.106Z,0.68
2023-05-19T01:17:25.346Z,0.68
2023-05-19T01:20:11.010Z,0.80
2023-05-19T01:23:16.790Z,0.73
2023-05-19T01:25:52.390Z,1.42
2023-05-19T01:28:27.973Z,0.98
2023-05-19T01:31:02.082Z,0.60
2023-05-19T01:33:36.002Z,0.80
2023-05-19T01:36:09.075Z,1.08
2023-05-19T01:38:44.236Z,1.10
2023-05-19T01:41:18.620Z,0.75
2023-05-19T01:43:51.955Z,0.60
2023-05-19T01:46:25.487Z,1.00
2023-05-19T01:48:59.189Z,0.95
2023-05-19T01:51:31.888Z,1.02
2023-05-19T01:54:04.720Z,0.82
2023-05-19T01:57:00.308Z,1.42
2023-05-19T01:59:36.066Z,1.30
2023-05-19T02:02:21.690Z,1.00
2023-05-19T02:05:01.798Z,1.10
2023-05-19T02:07:42.808Z,0.90
2023-05-19T02:10:22.916Z,0.57
2023-05-19T02:12:58.901Z,0.80
2023-05-19T02:15:42.349Z,0.77
2023-05-19T02:18:17.977Z,0.93
2023-05-19T02:20:50.879Z,0.77
2023-05-19T02:23:23.427Z,1.00
2023-05-19T02:25:56.289Z,1.38
2023-05-19T02:28:28.905Z,0.80
2023-05-19T02:31:01.774Z,1.42
2023-05-19T02:33:34.656Z,1.13
2023-05-19T02:36:09.040Z,0.93
2023-05-19T02:38:41.812Z,1.15
2023-05-19T02:41:14.594Z,1.00
2023-05-19T02:43:47.110Z,1.83
2023-05-19T02:46:20.119Z,1.35
2023-05-19T02:48:53.207Z,1.67
2023-05-19T02:51:26.052Z,1.30
2023-05-19T02:53:58.606Z,1.92
2023-05-19T02:56:31.395Z,1.42
2023-05-19T02:59:03.984Z,1.33
2023-05-19T03:01:37.764Z,1.40
2023-05-19T03:04:11.346Z,1.15
2023-05-19T03:06:45.585Z,1.17
2023-05-19T03:09:18.176Z,1.25
2023-05-19T03:11:51.096Z,1.17
2023-05-19T03:14:24.608Z,1.13
2023-05-19T03:16:57.512Z,1.00
2023-05-19T03:19:32.546Z,1.30
2023-05-19T03:22:05.440Z,1.30
2023-05-19T03:24:37.981Z,1.30
2023-05-19T03:27:12.509Z,1.35
2023-05-19T03:29:45.081Z,1.02
2023-05-19T03:32:17.973Z,1.02
2023-05-19T03:34:50.824Z,1.15
2023-05-19T03:37:23.718Z,0.88
2023-05-19T03:39:56.278Z,0.95
2023-05-19T03:42:29.401Z,1.00
2023-05-19T03:45:02.436Z,1.15
2023-05-19T03:47:35.280Z,0.80
2023-05-19T03:50:08.281Z,1.10
2023-05-19T03:52:45.507Z,1.30
2023-05-19T03:55:20.293Z,0.90
2023-05-19T03:57:53.143Z,1.13
2023-05-19T04:00:25.878Z,1.10
2023-05-19T04:03:00.231Z,1.30
2023-05-19T04:05:33.115Z,1.48
2023-05-19T04:08:06.221Z,1.40
2023-05-19T04:10:38.746Z,1.48
2023-05-19T04:13:11.802Z,1.67
2023-05-19T04:15:44.464Z,1.40
2023-05-19T04:18:17.276Z,1.08
2023-05-19T04:20:49.948Z,1.17
2023-05-19T04:23:22.801Z,1.50
2023-05-19T04:25:57.148Z,1.20
2023-05-19T04:28:30.238Z,1.30
2023-05-19T04:31:03.629Z,1.85
2023-05-19T04:33:40.325Z,1.45
2023-05-19T04:36:13.864Z,1.17
2023-05-19T04:38:47.652Z,1.27
2023-05-19T04:41:21.130Z,1.20
2023-05-19T04:43:53.942Z,0.90
2023-05-19T04:46:27.329Z,1.55
2023-05-19T04:49:01.406Z,1.50
2023-05-19T04:51:34.158Z,1.63
2023-05-19T04:54:10.276Z,1.33
2023-05-19T04:56:43.726Z,1.40
2023-05-19T04:59:16.558Z,1.10
2023-05-19T05:01:49.118Z,1.05
2023-05-19T05:04:23.035Z,1.30
2023-05-19T05:06:55.589Z,1.63
2023-05-19T05:09:28.451Z,1.13
2023-05-19T05:12:02.333Z,1.15
2023-05-19T05:14:35.525Z,1.20
2023-05-19T05:17:09.712Z,1.05
2023-05-19T05:19:42.785Z,1.42
2023-05-19T05:22:15.964Z,1.33
2023-05-19T05:24:49.374Z,1.45
2023-05-19T05:27:21.899Z,1.20
2023-05-19T05:29:55.309Z,1.50
2023-05-19T05:32:29.204Z,1.20
2023-05-19T05:35:02.194Z,1.17
2023-05-19T05:37:34.806Z,1.50
2023-05-19T05:40:08.362Z,1.65
2023-05-19T05:42:40.939Z,1.60
2023-05-19T05:45:13.880Z,1.38
2023-05-19T05:47:46.769Z,1.15
2023-05-19T05:50:19.915Z,1.58
2023-05-19T05:52:53.769Z,1.58
2023-05-19T05:55:27.005Z,1.70
2023-05-19T05:58:02.143Z,1.48
2023-05-19T06:00:35.250Z,1.20
2023-05-19T06:03:08.184Z,0.95
2023-05-19T06:05:41.358Z,1.10
2023-05-19T06:08:13.906Z,1.05
2023-05-19T06:10:47.461Z,1.52
2023-05-19T06:13:24.074Z,1.35
2023-05-19T06:15:57.046Z,1.10
2023-05-19T06:18:29.917Z,1.42
2023-05-19T06:21:03.429Z,1.10
2023-05-19T06:23:36.804Z,1.25
2023-05-19T06:26:09.624Z,1.10
2023-05-19T06:28:42.143Z,1.08
2023-05-19T06:31:15.283Z,1.55
2023-05-19T06:33:47.812Z,2.17
2023-05-19T06:36:20.743Z,1.55
2023-05-19T06:38:53.324Z,1.40
2023-05-19T06:41:26.295Z,1.25
2023-05-19T06:43:58.801Z,1.40
2023-05-19T06:46:31.895Z,1.17
2023-05-19T06:49:04.420Z,1.00
2023-05-19T06:51:37.452Z,1.20
2023-05-19T06:54:11.177Z,1.63
2023-05-19T06:56:43.971Z,1.70
2023-05-19T06:59:16.481Z,1.85
2023-05-19T07:01:49.411Z,1.20
2023-05-19T07:04:21.951Z,1.23
2023-05-19T07:06:55.092Z,1.10
2023-05-19T07:09:27.667Z,1.67
2023-05-19T07:12:01.453Z,1.20
2023-05-19T07:14:34.081Z,1.60
2023-05-19T07:17:07.139Z,1.35
2023-05-19T07:19:39.638Z,1.27
2023-05-19T07:22:12.748Z,1.00
2023-05-19T07:24:45.267Z,1.67
2023-05-19T07:27:18.438Z,1.20
2023-05-19T07:29:50.935Z,1.30
2023-05-19T07:32:23.898Z,1.48
2023-05-19T07:34:56.556Z,1.58
2023-05-19T07:37:29.456Z,1.45
2023-05-19T07:40:02.062Z,1.58
2023-05-19T07:42:35.305Z,1.92
2023-05-19T07:45:08.391Z,1.48
2023-05-19T07:47:41.430Z,1.27
2023-05-19T07:50:13.992Z,1.25
2023-05-19T07:52:47.084Z,1.55
2023-05-19T07:55:19.636Z,2.22
2023-05-19T07:57:52.458Z,1.50
2023-05-19T08:00:25.034Z,1.92
2023-05-19T08:02:58.281Z,1.10
2023-05-19T08:05:30.998Z,1.20
2023-05-19T08:08:04.631Z,1.67
2023-05-19T08:10:37.206Z,1.20
2023-05-19T08:13:10.022Z,1.55
2023-05-19T08:15:42.915Z,1.73
2023-05-19T08:18:16.230Z,1.33
2023-05-19T08:20:48.840Z,1.65
2023-05-19T08:23:22.158Z,1.30
2023-05-19T08:25:54.804Z,2.15
2023-05-19T08:28:27.950Z,1.55
2023-05-19T08:31:00.550Z,1.90
2023-05-19T08:33:33.465Z,2.05
2023-05-19T08:36:06.711Z,2.65
2023-05-19T08:38:39.550Z,1.60
2023-05-19T08:41:12.201Z,1.38
2023-05-19T08:43:45.515Z,1.75
2023-05-19T08:46:18.519Z,1.60
2023-05-19T08:48:57.347Z,1.85
2023-05-19T08:51:44.454Z,1.55
2023-05-19T08:54:18.753Z,1.50
2023-05-19T08:56:51.654Z,1.60
2023-05-19T08:59:24.870Z,1.50
2023-05-19T09:01:57.666Z,1.88
2023-05-19T09:04:32.165Z,1.77
2023-05-19T09:07:05.185Z,1.58
2023-05-19T09:09:38.279Z,1.90
2023-05-19T09:12:11.644Z,1.58
2023-05-19T09:14:44.626Z,2.00
2023-05-19T09:17:18.749Z,1.20
2023-05-19T09:19:52.878Z,1.45
2023-05-19T09:22:25.496Z,1.50
2023-05-19T09:24:58.997Z,1.27
2023-05-19T09:27:33.870Z,2.00
2023-05-19T09:30:10.411Z,1.55
2023-05-19T09:32:44.687Z,1.55
2023-05-19T09:35:20.101Z,1.65
2023-05-19T09:37:53.163Z,1.75
2023-05-19T09:40:28.380Z,1.27
2023-05-19T09:43:07.894Z,1.45
2023-05-19T09:45:40.796Z,1.20
2023-05-19T09:48:15.941Z,1.80
2023-05-19T09:50:51.751Z,1.48
2023-05-19T09:53:25.403Z,1.70
2023-05-19T09:55:58.586Z,1.38
2023-05-19T09:58:35.652Z,1.30
2023-05-19T10:01:09.731Z,1.52
2023-05-19T10:03:43.195Z,1.48
2023-05-19T10:06:16.496Z,1.83
2023-05-19T10:08:51.837Z,1.60
2023-05-19T10:11:25.634Z,1.60
2023-05-19T10:13:58.551Z,1.77
2023-05-19T10:16:32.744Z,1.60
2023-05-19T10:19:07.841Z,1.70
2023-05-19T10:21:41.265Z,1.80
2023-05-19T10:24:13.798Z,1.67
2023-05-19T10:27:02.632Z,1.70
2023-05-19T10:29:39.717Z,0.93
2023-05-19T10:32:18.192Z,1.40
2023-05-19T10:35:35.049Z,1.13
2023-05-19T10:38:36.051Z,1.23
2023-05-19T10:41:11.661Z,1.40
2023-05-19T10:44:03.648Z,1.20
2023-05-19T10:46:36.305Z,1.15
2023-05-19T10:49:09.269Z,1.15
2023-05-19T10:51:45.882Z,1.25
2023-05-19T10:54:40.807Z,0.98
2023-05-19T10:57:19.733Z,0.85
2023-05-19T10:59:55.764Z,1.13
2023-05-19T11:02:43.082Z,1.45
2023-05-19T11:05:18.654Z,1.52
2023-05-19T11:08:08.182Z,1.20
2023-05-19T11:10:44.772Z,1.27
2023-05-19T11:13:22.693Z,0.98
2023-05-19T11:15:56.580Z,1.23
2023-05-19T11:18:35.263Z,1.10
2023-05-19T11:21:08.160Z,1.30
2023-05-19T11:23:40.999Z,0.98
2023-05-19T11:26:13.938Z,1.73
2023-05-19T11:28:48.286Z,1.25
2023-05-19T11:31:25.416Z,1.52
2023-05-19T11:33:58.520Z,1.60
2023-05-19T11:36:32.089Z,1.50
2023-05-19T11:39:08.526Z,1.58
2023-05-19T11:41:41.705Z,1.20
2023-05-19T11:44:14.231Z,1.15
2023-05-19T11:46:47.169Z,1.45
2023-05-19T11:49:19.957Z,1.73
2023-05-19T11:51:54.125Z,1.65
2023-05-19T11:54:36.694Z,1.80
2023-05-19T11:57:14.206Z,1.30
2023-05-19T11:59:49.776Z,1.33
2023-05-19T12:02:27.998Z,1.30
2023-05-19T12:05:00.698Z,1.30
2023-05-19T12:07:39.550Z,1.00
2023-05-19T12:10:14.840Z,1.67
2023-05-19T12:12:49.884Z,1.20
2023-05-19T12:15:23.302Z,1.05
2023-05-19T12:17:57.760Z,1.23
2023-05-19T12:20:32.750Z,1.27
2023-05-19T12:23:06.773Z,1.15
2023-05-19T12:25:39.522Z,1.30
2023-05-19T12:28:12.438Z,1.20
2023-05-19T12:30:49.685Z,1.02
2023-05-19T12:33:23.018Z,1.10
2023-05-19T12:35:55.892Z,0.88
2023-05-19T12:38:28.721Z,1.15
2023-05-19T12:41:01.258Z,0.70
2023-05-19T12:43:36.068Z,1.13
2023-05-19T12:46:13.000Z,1.13
2023-05-19T12:48:46.910Z,0.90
2023-05-19T12:51:20.331Z,1.02
2023-05-19T12:53:53.552Z,0.88
2023-05-19T12:56:29.639Z,0.80
2023-05-19T12:59:05.525Z,1.00
2023-05-19T13:01:38.191Z,1.00
2023-05-19T13:04:11.220Z,1.13
2023-05-19T13:06:43.906Z,0.68
2023-05-19T13:09:17.944Z,1.02
2023-05-19T13:11:54.151Z,0.90
2023-05-19T13:14:27.154Z,0.65
2023-05-19T13:16:59.817Z,1.35
2023-05-19T13:19:32.898Z,0.90
2023-05-19T13:22:05.536Z,1.30
2023-05-19T13:24:38.354Z,0.82
2023-05-19T13:27:10.923Z,0.90
2023-05-19T13:29:43.797Z,0.77
2023-05-19T13:32:16.506Z,1.10
2023-05-19T13:34:49.341Z,0.98
2023-05-19T13:37:21.862Z,1.67
2023-05-19T13:39:54.901Z,0.95
2023-05-19T13:42:27.483Z,1.27
2023-05-19T13:45:00.435Z,0.90
2023-05-19T13:47:33.260Z,1.17
2023-05-19T13:50:06.759Z,1.08
2023-05-19T13:52:39.388Z,0.77
2023-05-19T13:55:12.297Z,1.10
2023-05-19T13:57:44.990Z,1.10
2023-05-19T14:00:19.026Z,1.00
2023-05-19T14:02:51.957Z,0.95
2023-05-19T14:05:24.941Z,1.17
2023-05-19T14:07:58.208Z,1.10
2023-05-19T14:10:31.557Z,0.88
2023-05-19T14:13:29.762Z,1.00
2023-05-19T14:15:57.805Z,1.40
2023-05-19T14:18:31.073Z,1.92
2023-05-19T14:21:04.506Z,1.10
2023-05-19T14:23:37.249Z,1.30
2023-05-19T14:26:10.229Z,1.00
2023-05-19T14:28:43.501Z,1.40
2023-05-19T14:31:16.478Z,1.05
2023-05-19T14:33:49.316Z,1.10
2023-05-19T14:36:22.271Z,1.00
2023-05-19T14:38:54.944Z,1.10
2023-05-19T14:41:27.928Z,1.08
2023-05-19T14:44:00.623Z,1.05
2023-05-19T14:46:33.594Z,1.17
2023-05-19T14:49:06.684Z,1.10
2023-05-19T14:51:39.601Z,1.40
2023-05-19T14:54:12.317Z,1.30
2023-05-19T14:56:45.292Z,1.00
2023-05-19T14:59:17.979Z,1.48
2023-05-19T15:01:50.948Z,1.20
2023-05-19T15:04:23.654Z,0.85
2023-05-19T15:07:09.630Z,0.90
2023-05-19T15:09:43.279Z,1.30
2023-05-19T15:12:16.326Z,1.40
2023-05-19T15:14:48.996Z,1.35
2023-05-19T15:17:22.091Z,1.45
2023-05-19T15:19:54.742Z,1.30
2023-05-19T15:22:27.764Z,1.00
2023-05-19T15:25:01.078Z,1.20
2023-05-19T15:27:36.611Z,1.40
2023-05-19T15:30:09.606Z,0.95
2023-05-19T15:32:42.529Z,1.58
2023-05-19T15:35:15.266Z,1.58
2023-05-19T15:37:48.199Z,1.63
2023-05-19T15:40:20.901Z,1.73
2023-05-19T15:42:53.808Z,1.58
2023-05-19T15:45:26.568Z,1.33
2023-05-19T15:47:59.842Z,1.85
2023-05-19T15:50:33.134Z,1.42
2023-05-19T15:53:08.235Z,1.15
2023-05-19T15:55:41.067Z,1.48
2023-05-19T15:58:15.639Z,1.58
2023-05-19T16:00:48.326Z,1.17
2023-05-19T16:03:22.603Z,2.10
2023-05-19T16:05:55.526Z,1.75
2023-05-19T16:08:29.092Z,1.45
2023-05-19T16:11:01.843Z,1.20
2023-05-19T16:13:34.945Z,1.85
2023-05-19T16:16:11.857Z,1.50
2023-05-19T16:18:45.354Z,1.52
2023-05-19T16:21:18.030Z,1.60
2023-05-19T16:23:51.309Z,1.48
2023-05-19T16:26:23.905Z,1.35
2023-05-19T16:28:56.800Z,1.42
2023-05-19T16:31:29.354Z,1.58
2023-05-19T16:34:02.278Z,2.25
2023-05-19T16:36:34.971Z,2.25
2023-05-19T16:39:08.023Z,2.10
2023-05-19T16:41:40.547Z,1.90
2023-05-19T16:44:14.726Z,2.10
2023-05-19T16:46:47.578Z,1.33
2023-05-19T16:49:20.508Z,1.88
2023-05-19T16:51:54.232Z,1.73
2023-05-19T16:54:28.394Z,2.15
2023-05-19T16:57:01.571Z,1.77
2023-05-19T16:59:35.045Z,1.98
2023-05-19T17:02:08.634Z,1.92
2023-05-19T17:04:41.899Z,1.65
2023-05-19T17:07:17.713Z,2.28
2023-05-19T17:09:52.482Z,1.75
2023-05-19T17:12:26.164Z,1.42
2023-05-19T17:14:59.360Z,1.83
2023-05-19T17:17:32.071Z,1.45
2023-05-19T17:20:05.670Z,1.75
2023-05-19T17:22:38.249Z,2.35
2023-05-19T17:25:11.145Z,1.58
2023-05-19T17:27:43.735Z,1.55
2023-05-19T17:30:16.794Z,1.73
2023-05-19T17:32:49.632Z,1.60
2023-05-19T17:35:22.735Z,2.10
2023-05-19T17:37:55.649Z,1.83
2023-05-19T17:40:28.729Z,2.15
2023-05-19T17:43:01.631Z,2.08
2023-05-19T17:45:34.979Z,2.00
2023-05-19T17:48:07.846Z,2.10
2023-05-19T17:50:40.834Z,2.00
2023-05-19T17:53:14.151Z,1.90
2023-05-19T17:55:51.486Z,1.65
2023-05-19T17:58:24.528Z,2.25
2023-05-19T18:00:57.750Z,1.52
2023-05-19T18:03:31.388Z,2.53
2023-05-19T18:06:05.716Z,1.83
2023-05-19T18:08:39.815Z,2.03
2023-05-19T18:11:16.233Z,1.88
2023-05-19T18:13:48.945Z,1.92
2023-05-19T18:16:21.918Z,2.10
2023-05-19T18:18:54.685Z,2.88
2023-05-19T18:21:27.950Z,2.70
2023-05-19T18:24:03.186Z,2.50
2023-05-19T18:26:37.891Z,2.17
2023-05-19T18:29:11.405Z,1.70
2023-05-19T18:31:44.478Z,1.98
2023-05-19T18:34:17.067Z,2.40
2023-05-19T18:36:49.970Z,1.85
2023-05-19T18:39:22.639Z,1.30
2023-05-19T18:41:55.564Z,1.77
2023-05-19T18:44:29.489Z,1.65
2023-05-19T18:47:02.350Z,1.65
2023-05-19T18:49:34.903Z,2.17
2023-05-19T18:52:08.052Z,2.63
2023-05-19T18:54:42.405Z,2.03
2023-05-19T18:57:15.317Z,2.20
2023-05-19T18:59:47.958Z,2.20
2023-05-19T19:02:20.894Z,3.33
2023-05-19T19:04:53.624Z,2.65
2023-05-19T19:07:27.825Z,2.17
2023-05-19T19:10:00.388Z,2.63
2023-05-19T19:12:33.451Z,2.17
2023-05-19T19:15:09.195Z,2.55
2023-05-19T19:17:42.495Z,2.70
2023-05-19T19:20:15.134Z,1.85
2023-05-19T19:22:50.560Z,2.05
2023-05-19T19:25:23.655Z,2.55
2023-05-19T19:27:56.768Z,2.42
2023-05-19T19:30:29.678Z,2.65
2023-05-19T19:33:03.452Z,2.03
2023-05-19T19:35:37.424Z,1.90
2023-05-19T19:38:10.278Z,2.30
2023-05-19T19:40:42.853Z,2.55
2023-05-19T19:43:15.700Z,1.95
2023-05-19T19:45:48.242Z,1.95
2023-05-19T19:48:21.301Z,2.55
2023-05-19T19:50:55.040Z,2.40
2023-05-19T19:53:27.995Z,2.17
2023-05-19T19:56:02.678Z,1.98
2023-05-19T19:58:37.868Z,1.88
2023-05-19T20:01:11.628Z,2.65
2023-05-19T20:03:44.646Z,2.33
2023-05-19T20:06:17.343Z,2.03
2023-05-19T20:08:50.233Z,2.28
2023-05-19T20:11:24.371Z,2.40
2023-05-19T20:13:57.227Z,1.73
2023-05-19T20:16:29.885Z,1.83
2023-05-19T20:19:02.893Z,2.03
2023-05-19T20:21:35.733Z,2.08
2023-05-19T20:24:08.927Z,2.08
2023-05-19T20:26:41.459Z,2.20
2023-05-19T20:29:14.346Z,1.83
2023-05-19T20:31:47.007Z,2.22
2023-05-19T20:34:20.013Z,2.63
2023-05-19T20:36:52.731Z,2.55
2023-05-19T20:39:25.629Z,2.53
2023-05-19T20:41:58.218Z,1.83
2023-05-19T20:44:31.057Z,1.83
2023-05-19T20:47:04.333Z,1.98
2023-05-19T20:49:37.488Z,2.22
2023-05-19T20:52:10.098Z,2.17
2023-05-19T20:54:43.139Z,2.30
2023-05-19T20:57:15.842Z,1.67
2023-05-19T20:59:48.650Z,2.20
2023-05-19T21:02:21.184Z,2.22
2023-05-19T21:04:54.250Z,2.00
2023-05-19T21:07:26.865Z,2.30
2023-05-19T21:09:59.688Z,1.70
2023-05-19T21:12:34.253Z,2.00
2023-05-19T21:15:08.033Z,1.88
2023-05-19T21:17:40.806Z,2.17
2023-05-19T21:20:13.788Z,2.30
2023-05-19T21:22:46.300Z,2.20
2023-05-19T21:25:19.180Z,2.72
2023-05-19T21:27:52.032Z,2.03
2023-05-19T21:30:25.838Z,1.92
2023-05-19T21:32:58.644Z,2.63
2023-05-19T21:35:31.572Z,2.20
2023-05-19T21:38:15.764Z,2.00
2023-05-19T21:40:56.172Z,1.77
2023-05-19T21:43:28.744Z,1.70
2023-05-19T21:46:01.717Z,2.13
2023-05-19T21:48:34.464Z,1.80
2023-05-19T21:51:07.327Z,2.75
2023-05-19T21:53:39.912Z,2.10
2023-05-19T21:56:12.767Z,2.08
2023-05-19T21:58:45.444Z,2.00
2023-05-19T22:01:18.999Z,2.13
2023-05-19T22:03:51.568Z,1.63
2023-05-19T22:06:24.362Z,1.73
2023-05-19T22:08:58.162Z,1.60
2023-05-19T22:11:31.007Z,2.42
2023-05-19T22:14:03.513Z,2.03
2023-05-19T22:16:36.790Z,2.50
2023-05-19T22:19:10.542Z,2.35
2023-05-19T22:21:43.510Z,2.20
2023-05-19T22:24:18.533Z,1.95
2023-05-19T22:26:51.331Z,2.05
2023-05-19T22:29:23.853Z,2.10
2023-05-19T22:31:56.725Z,1.92
2023-05-19T22:34:29.336Z,1.75
2023-05-19T22:37:02.199Z,2.53
2023-05-19T22:39:34.709Z,2.40
2023-05-19T22:42:07.541Z,2.10
2023-05-19T22:44:40.079Z,2.00
2023-05-19T22:47:13.957Z,1.73
2023-05-19T22:49:46.668Z,1.95
2023-05-19T22:52:19.485Z,2.50
2023-05-19T22:54:52.108Z,2.30
2023-05-19T22:57:24.995Z,3.00
2023-05-19T22:59:57.557Z,2.63
2023-05-19T23:02:30.497Z,2.30
2023-05-19T23:05:03.176Z,2.17
2023-05-19T23:07:36.015Z,2.03
2023-05-19T23:10:08.945Z,1.95
2023-05-19T23:12:42.498Z,1.85
2023-05-19T23:15:14.992Z,2.20
2023-05-19T23:17:47.793Z,2.83
2023-05-19T23:20:20.328Z,2.30
2023-05-19T23:22:53.460Z,2.22
2023-05-19T23:25:25.962Z,1.80
2023-05-19T23:27:59.182Z,2.10
2023-05-19T23:30:33.047Z,2.40
2023-05-19T23:33:06.129Z,2.28
2023-05-19T23:35:39.638Z,2.00
2023-05-19T23:38:12.401Z,2.20
2023-05-19T23:40:44.926Z,2.10
2023-05-19T23:43:17.742Z,1.98
2023-05-19T23:45:50.482Z,2.50
2023-05-19T23:48:23.285Z,2.05
2023-05-19T23:50:55.898Z,1.80
2023-05-19T23:53:28.743Z,2.40
2023-05-19T23:56:01.338Z,2.42
2023-05-19T23:58:34.125Z,2.10
